Time;durP1;ratioP1;P1;durP2;ratioP2;P2;SDS_P1;SDS_P2;PMS_P1;PMS_P2;Temp;Humidity;BMP_temperature;BMP_pressure;BME280_temperature;BME280_humidity;BME280_pressure;Samples;Min_cycle;Max_cycle;Signal;HPM_P1;HPM_P2
2022/04/06 00:00:18;;;;;;;2.40;2.03;;;-1.80;99.90;;;;;;4973496;28;20027;-75
2022/04/06 00:02:45;;;;;;;2.90;2.40;;;-1.80;99.90;;;;;;4973593;28;20074;-74
2022/04/06 00:05:12;;;;;;;2.17;1.98;;;-1.80;99.90;;;;;;4973509;28;20038;-75
2022/04/06 00:07:40;;;;;;;3.88;2.00;;;-1.80;99.90;;;;;;4973270;28;20098;-75
2022/04/06 00:10:07;;;;;;;2.28;2.00;;;-1.80;99.90;;;;;;4973567;28;20166;-75
2022/04/06 00:12:34;;;;;;;4.82;1.83;;;-1.80;99.90;;;;;;4973513;28;20038;-75
2022/04/06 00:15:00;;;;;;;2.55;1.75;;;-1.80;99.90;;;;;;4971995;28;20022;-76
2022/04/06 00:17:26;;;;;;;3.72;1.90;;;-1.80;99.90;;;;;;4973304;28;20033;-72
2022/04/06 00:19:52;;;;;;;3.30;2.10;;;-1.70;99.90;;;;;;4973253;28;20620;-76
2022/04/06 00:22:18;;;;;;;2.38;2.17;;;-1.70;99.90;;;;;;4973239;28;20042;-75
2022/04/06 00:24:43;;;;;;;3.25;2.47;;;-1.70;99.90;;;;;;4973149;28;20094;-75
2022/04/06 00:27:09;;;;;;;2.10;1.90;;;-1.60;99.90;;;;;;4972911;28;20098;-75
2022/04/06 00:29:35;;;;;;;2.60;1.83;;;-1.60;99.90;;;;;;4973354;28;20030;-75
2022/04/06 00:32:00;;;;;;;2.60;2.00;;;-1.60;99.90;;;;;;4973133;28;20503;-75
2022/04/06 00:37:10;;;;;;;1.70;1.50;;;-1.70;99.90;;;;;;4974203;28;20038;-74
2022/04/06 00:39:36;;;;;;;2.45;1.90;;;-1.80;99.90;;;;;;4976950;28;20055;-74
2022/04/06 00:42:02;;;;;;;2.50;1.83;;;-1.80;99.90;;;;;;4977130;28;20395;-74
2022/04/06 00:44:28;;;;;;;2.30;1.92;;;-1.80;99.90;;;;;;4976865;28;20043;-74
2022/04/06 00:46:54;;;;;;;5.85;2.08;;;-1.80;99.90;;;;;;4976909;28;20033;-74
2022/04/06 00:49:20;;;;;;;2.05;1.85;;;-1.80;99.90;;;;;;4976858;28;20552;-80
2022/04/06 00:51:48;;;;;;;2.30;1.80;;;-1.80;99.90;;;;;;4962877;28;20431;-77
2022/04/06 00:54:15;;;;;;;2.50;1.98;;;-1.80;99.90;;;;;;4957406;28;20046;-78
2022/04/06 00:56:42;;;;;;;2.78;1.75;;;-1.80;99.90;;;;;;4957340;28;20035;-78
2022/04/06 00:59:09;;;;;;;2.03;1.75;;;-1.70;99.90;;;;;;4957550;28;20038;-77
2022/04/06 01:01:35;;;;;;;2.25;2.05;;;-1.70;99.90;;;;;;4957326;28;20034;-77
2022/04/06 01:04:01;;;;;;;2.40;2.13;;;-1.60;99.90;;;;;;4957033;28;20031;-78
2022/04/06 01:06:27;;;;;;;2.95;1.90;;;-1.50;99.90;;;;;;4957432;28;20070;-77
2022/04/06 01:08:53;;;;;;;2.53;2.10;;;-1.50;99.90;;;;;;4957500;28;20078;-77
2022/04/06 01:11:20;;;;;;;2.30;2.10;;;-1.40;99.90;;;;;;4957470;28;20098;-77
2022/04/06 01:13:46;;;;;;;2.28;2.08;;;-1.40;99.90;;;;;;4957184;28;20468;-77
2022/04/06 01:16:12;;;;;;;2.53;1.95;;;-1.30;99.90;;;;;;4957161;28;20074;-77
2022/04/06 01:18:40;;;;;;;3.72;1.90;;;-1.30;99.90;;;;;;4957336;28;20106;-77
2022/04/06 01:21:06;;;;;;;1.92;1.83;;;-1.30;99.90;;;;;;4957207;28;20032;-77
2022/04/06 01:23:32;;;;;;;2.17;1.90;;;-1.30;99.90;;;;;;4956870;29;20407;-77
2022/04/06 01:25:58;;;;;;;2.63;2.22;;;-1.20;99.90;;;;;;4957167;29;20027;-77
2022/04/06 01:28:24;;;;;;;3.78;1.88;;;-1.20;99.90;;;;;;4956780;29;20493;-76
2022/04/06 01:30:50;;;;;;;1.98;1.60;;;-1.20;99.90;;;;;;4957156;28;20031;-76
2022/04/06 01:33:16;;;;;;;2.00;1.80;;;-1.10;99.90;;;;;;4956604;28;20028;-76
2022/04/06 01:35:42;;;;;;;2.30;2.10;;;-1.00;99.90;;;;;;4956644;28;20043;-76
2022/04/06 01:38:09;;;;;;;1.67;1.58;;;-1.00;99.90;;;;;;4956331;29;20043;-77
2022/04/06 01:40:35;;;;;;;1.83;1.73;;;-0.90;99.90;;;;;;4956975;28;20058;-77
2022/04/06 01:43:01;;;;;;;1.77;1.60;;;-0.90;99.90;;;;;;4956915;28;20118;-77
2022/04/06 01:45:27;;;;;;;1.52;1.42;;;-0.80;99.90;;;;;;4956761;28;20023;-77
2022/04/06 01:47:53;;;;;;;1.83;1.67;;;-0.80;99.90;;;;;;4956645;28;20505;-77
2022/04/06 01:53:04;;;;;;;1.75;1.65;;;-0.70;99.90;;;;;;4956602;29;20034;-77
2022/04/06 01:55:29;;;;;;;1.92;1.73;;;-0.60;99.90;;;;;;4956350;28;20471;-76
2022/04/06 01:57:56;;;;;;;1.70;1.60;;;-0.50;99.90;;;;;;4956308;29;20082;-76
2022/04/06 02:00:22;;;;;;;1.48;1.38;;;-0.50;99.90;;;;;;4956335;28;20106;-78
2022/04/06 02:02:50;;;;;;;1.70;1.60;;;-0.40;99.90;;;;;;4956100;28;20450;-77
2022/04/06 02:05:17;;;;;;;1.50;1.40;;;-0.40;99.90;;;;;;4956020;28;20047;-77
2022/04/06 02:07:43;;;;;;;1.65;1.55;;;-0.30;99.90;;;;;;4956042;28;20027;-70
2022/04/06 02:10:09;;;;;;;1.50;1.40;;;-0.20;99.90;;;;;;4956288;28;20027;-80
2022/04/06 02:12:37;;;;;;;1.60;1.50;;;-0.20;99.90;;;;;;4956009;28;20027;-78
2022/04/06 02:15:03;;;;;;;1.70;1.60;;;-0.10;99.90;;;;;;4955927;28;20487;-79
2022/04/06 02:17:29;;;;;;;1.40;1.30;;;-0.10;99.90;;;;;;4956228;29;20058;-78
2022/04/06 02:19:56;;;;;;;1.35;1.25;;;-0.10;99.90;;;;;;4955993;28;20482;-78
2022/04/06 02:22:22;;;;;;;1.50;1.40;;;0.00;99.90;;;;;;4955700;28;20118;-78
2022/04/06 02:56:17;;;;;;;1.40;1.30;;;0.40;99.90;;;;;;4954624;29;20059;-78
2022/04/06 02:58:43;;;;;;;1.17;1.10;;;0.40;99.90;;;;;;4955038;29;20098;-78
2022/04/06 03:01:09;;;;;;;1.40;1.30;;;0.50;99.90;;;;;;4954899;28;20384;-79
2022/04/06 03:37:14;;;;;;;1.50;1.38;;;0.90;99.90;;;;;;6003466;23;20009;-76
2022/04/06 03:39:40;;;;;;;1.35;1.25;;;0.90;99.90;;;;;;4954456;28;20051;-77
2022/04/06 03:42:06;;;;;;;1.35;1.25;;;0.90;99.90;;;;;;4954744;29;20458;-77
2022/04/06 03:44:31;;;;;;;1.17;1.10;;;0.90;99.90;;;;;;4954240;29;20042;-78
2022/04/06 03:46:57;;;;;;;1.40;1.30;;;1.00;99.90;;;;;;4955676;29;20026;-79
2022/04/06 03:49:23;;;;;;;0.82;0.82;;;1.00;99.90;;;;;;4954271;29;20027;-77
2022/04/06 03:51:49;;;;;;;1.42;1.10;;;1.10;99.90;;;;;;4954256;29;20035;-77
2022/04/06 03:54:14;;;;;;;1.02;1.02;;;1.10;99.90;;;;;;4954497;29;20023;-79
2022/04/06 03:56:40;;;;;;;1.00;1.00;;;1.10;99.90;;;;;;4954368;29;20056;-78
2022/04/06 03:59:06;;;;;;;1.02;1.02;;;1.10;99.90;;;;;;4954626;29;20383;-77
2022/04/06 04:01:35;;;;;;;0.90;0.90;;;1.20;99.90;;;;;;4954431;29;20035;-77
2022/04/06 04:04:01;;;;;;;0.90;0.90;;;1.20;99.90;;;;;;4954309;29;20049;-78
2022/04/06 04:06:27;;;;;;;0.95;0.95;;;1.20;99.90;;;;;;4954459;29;20026;-78
2022/04/06 04:08:53;;;;;;;0.82;0.82;;;1.20;99.90;;;;;;4954293;29;20035;-79
2022/04/06 04:11:18;;;;;;;1.00;1.00;;;1.30;99.90;;;;;;4953776;28;20027;-78
2022/04/06 04:13:45;;;;;;;0.90;0.90;;;1.30;99.90;;;;;;4952522;29;20402;-78
2022/04/06 04:16:11;;;;;;;0.80;0.80;;;1.30;99.90;;;;;;4954112;29;20027;-78
2022/04/06 04:18:36;;;;;;;1.02;0.93;;;1.30;99.90;;;;;;4953996;29;20027;-80
2022/04/06 04:23:46;;;;;;;0.98;0.82;;;1.40;99.90;;;;;;4953827;29;20082;-78
2022/04/06 04:26:12;;;;;;;0.88;0.88;;;1.40;99.90;;;;;;4953708;29;20051;-79
2022/04/06 04:28:38;;;;;;;0.90;0.90;;;1.40;99.90;;;;;;4953748;29;20026;-80
2022/04/06 04:31:03;;;;;;;1.15;1.00;;;1.40;99.90;;;;;;4953922;29;20019;-79
2022/04/06 04:33:29;;;;;;;1.20;1.10;;;1.40;99.90;;;;;;4953633;29;20106;-71
2022/04/06 04:35:55;;;;;;;1.67;1.23;;;1.40;99.90;;;;;;4953864;29;20027;-70
2022/04/06 04:38:21;;;;;;;1.48;1.38;;;1.40;99.90;;;;;;4953455;28;20468;-72
2022/04/06 04:40:47;;;;;;;1.38;1.27;;;1.50;99.90;;;;;;4953722;29;20059;-73
2022/04/06 04:43:12;;;;;;;1.33;1.23;;;1.50;99.90;;;;;;4953212;29;20075;-72
2022/04/06 04:45:38;;;;;;;1.52;1.40;;;1.60;99.90;;;;;;4957355;28;20030;-76
2022/04/06 04:48:04;;;;;;;1.55;1.45;;;1.60;99.90;;;;;;4967648;28;20037;-70
2022/04/06 04:50:30;;;;;;;2.03;1.30;;;1.60;99.90;;;;;;4956103;28;20031;-71
2022/04/06 04:52:56;;;;;;;2.00;1.30;;;1.60;99.90;;;;;;4971950;28;20027;-71
2022/04/06 04:55:21;;;;;;;1.27;1.17;;;1.60;99.90;;;;;;4971829;28;20501;-71
2022/04/06 04:57:47;;;;;;;3.58;1.30;;;1.50;99.90;;;;;;4971740;28;20360;-69
2022/04/06 05:00:13;;;;;;;1.20;1.13;;;1.50;99.90;;;;;;4963399;28;20178;-71
2022/04/06 05:02:39;;;;;;;1.60;1.50;;;1.50;99.90;;;;;;4953957;28;20035;-70
2022/04/06 05:05:06;;;;;;;2.38;1.27;;;1.60;99.90;;;;;;4964767;28;20027;-72
2022/04/06 05:07:33;;;;;;;2.55;1.55;;;1.50;99.90;;;;;;4972049;28;20038;-73
2022/04/06 05:09:59;;;;;;;2.55;1.50;;;1.60;99.90;;;;;;4972128;28;20307;-72
2022/04/06 05:12:26;;;;;;;2.33;1.27;;;1.60;99.90;;;;;;4970761;28;20390;-72
2022/04/06 05:14:52;;;;;;;1.45;1.30;;;1.60;99.90;;;;;;4971752;28;20034;-72
2022/04/06 05:17:17;;;;;;;1.10;1.08;;;1.60;99.90;;;;;;4972307;28;20027;-72
2022/04/06 05:19:43;;;;;;;1.77;1.30;;;1.60;99.90;;;;;;4972201;28;20375;-72
2022/04/06 05:22:09;;;;;;;1.70;1.30;;;1.60;99.90;;;;;;4972903;28;20054;-71
2022/04/06 05:24:35;;;;;;;1.30;1.20;;;1.70;99.90;;;;;;4975720;28;20509;-73
2022/04/06 05:27:02;;;;;;;1.20;1.10;;;1.80;99.90;;;;;;4978995;28;20027;-73
2022/04/06 05:29:28;;;;;;;1.00;1.00;;;1.70;99.90;;;;;;4978117;28;20600;-73
2022/04/06 05:31:53;;;;;;;1.30;1.20;;;1.70;99.90;;;;;;4975993;28;20074;-75
2022/04/06 05:34:19;;;;;;;1.95;1.08;;;1.70;99.90;;;;;;4975809;28;20027;-75
2022/04/06 05:36:45;;;;;;;1.38;1.23;;;1.70;99.90;;;;;;4975824;28;20033;-76
2022/04/06 05:39:11;;;;;;;1.67;1.25;;;1.60;99.90;;;;;;4975687;28;20085;-75
2022/04/06 05:41:37;;;;;;;1.30;1.20;;;1.70;99.90;;;;;;4975801;28;20029;-75
2022/04/06 05:44:03;;;;;;;1.52;1.27;;;1.70;99.90;;;;;;4975519;28;20085;-72
2022/04/06 05:46:29;;;;;;;2.50;1.20;;;2.10;99.90;;;;;;4975946;28;20031;-73
2022/04/06 05:48:55;;;;;;;1.10;1.10;;;2.10;99.90;;;;;;4975669;28;20398;-73
2022/04/06 05:51:22;;;;;;;1.33;1.23;;;2.00;99.90;;;;;;4976066;28;20426;-74
2022/04/06 05:53:47;;;;;;;2.95;1.58;;;1.90;99.90;;;;;;4974354;28;20465;-74
2022/04/06 05:56:13;;;;;;;3.30;1.42;;;2.10;99.90;;;;;;4975734;28;20058;-72
2022/04/06 05:58:40;;;;;;;5.43;1.65;;;2.30;99.90;;;;;;4975693;28;20042;-74
2022/04/06 06:01:06;;;;;;;1.67;1.58;;;2.20;99.90;;;;;;4975607;28;20030;-78
2022/04/06 06:03:32;;;;;;;2.17;1.73;;;2.00;99.90;;;;;;4975482;28;20046;-74
2022/04/06 06:05:58;;;;;;;9.10;2.03;;;1.90;99.90;;;;;;4975326;28;20236;-74
2022/04/06 06:08:24;;;;;;;2.20;1.83;;;1.90;99.90;;;;;;4975446;28;20027;-74
2022/04/06 06:10:49;;;;;;;2.25;1.65;;;1.90;99.90;;;;;;4975275;28;20050;-71
2022/04/06 06:13:15;;;;;;;2.05;1.85;;;1.90;99.90;;;;;;4975405;28;20034;-74
2022/04/06 06:15:41;;;;;;;2.80;1.58;;;1.90;99.90;;;;;;4975290;28;20483;-73
2022/04/06 06:18:08;;;;;;;5.80;2.15;;;1.90;99.90;;;;;;4974788;28;20031;-70
2022/04/06 06:20:34;;;;;;;4.85;1.80;;;1.90;99.90;;;;;;4975234;28;20027;-73
2022/04/06 06:23:00;;;;;;;2.50;1.80;;;1.90;99.90;;;;;;4974985;28;20426;-76
2022/04/06 06:25:26;;;;;;;2.60;1.75;;;2.00;99.90;;;;;;4974912;28;20082;-73
2022/04/06 06:27:52;;;;;;;1.70;1.60;;;2.00;99.90;;;;;;4974969;28;20563;-74
2022/04/06 06:30:18;;;;;;;1.95;1.55;;;2.00;99.90;;;;;;4975010;28;20023;-79
2022/04/06 06:32:45;;;;;;;2.75;1.67;;;2.00;99.90;;;;;;4975201;28;20027;-75
2022/04/06 06:35:11;;;;;;;2.72;1.70;;;2.00;99.90;;;;;;4973911;28;20027;-73
2022/04/06 06:37:45;;;;;;;6.40;1.42;;;2.10;99.90;;;;;;4974460;28;20035;-72
2022/04/06 06:40:11;;;;;;;1.55;1.45;;;2.00;99.90;;;;;;4974589;28;20034;-75
2022/04/06 06:42:37;;;;;;;5.03;1.65;;;2.00;99.90;;;;;;4974843;28;20026;-74
2022/04/06 06:45:02;;;;;;;3.88;1.35;;;2.00;99.90;;;;;;4974852;28;20441;-72
2022/04/06 06:47:28;;;;;;;3.10;1.70;;;2.00;99.90;;;;;;4970831;28;20026;-73
2022/04/06 06:49:54;;;;;;;2.67;1.40;;;2.10;99.90;;;;;;4962229;28;20027;-75
2022/04/06 06:52:19;;;;;;;3.42;1.75;;;2.10;99.90;;;;;;4958792;28;20035;-78
2022/04/06 06:54:45;;;;;;;2.00;1.30;;;2.20;99.90;;;;;;4954721;29;20038;-72
2022/04/06 06:57:11;;;;;;;4.60;1.67;;;2.20;99.90;;;;;;4973719;28;20098;-71
2022/04/06 06:59:37;;;;;;;1.42;1.27;;;2.20;99.90;;;;;;4973746;28;20039;-75
2022/04/06 07:02:03;;;;;;;1.83;1.30;;;2.30;99.90;;;;;;4973437;28;20023;-74
2022/04/06 07:04:29;;;;;;;1.90;1.30;;;2.30;99.90;;;;;;4959852;28;20039;-75
2022/04/06 07:06:55;;;;;;;2.25;1.92;;;2.40;99.90;;;;;;4970114;28;20030;-73
2022/04/06 07:09:20;;;;;;;1.20;1.10;;;2.40;99.90;;;;;;4953977;29;20148;-73
2022/04/06 07:11:46;;;;;;;3.00;1.10;;;2.40;99.90;;;;;;4961959;28;20031;-73
2022/04/06 07:14:12;;;;;;;2.15;1.20;;;2.40;99.90;;;;;;4973659;28;20031;-72
2022/04/06 07:16:37;;;;;;;1.30;1.20;;;2.40;99.90;;;;;;4973586;28;20397;-72
2022/04/06 07:19:03;;;;;;;1.83;1.50;;;2.40;99.90;;;;;;4955078;28;20058;-73
2022/04/06 07:21:29;;;;;;;3.20;1.60;;;2.40;99.90;;;;;;4959647;28;20073;-71
2022/04/06 07:23:55;;;;;;;6.10;2.00;;;2.50;99.90;;;;;;4973313;28;20092;-72
2022/04/06 07:26:22;;;;;;;2.88;1.85;;;2.50;99.90;;;;;;4973884;28;20175;-74
2022/04/06 07:28:47;;;;;;;3.28;1.58;;;2.50;99.90;;;;;;4957214;28;20023;-71
2022/04/06 07:31:14;;;;;;;1.98;1.77;;;2.40;99.90;;;;;;4971851;28;20072;-72
2022/04/06 07:33:40;;;;;;;1.55;1.45;;;2.40;99.90;;;;;;4966426;28;20119;-74
2022/04/06 07:36:07;;;;;;;1.92;1.50;;;2.40;99.90;;;;;;4964169;28;20041;-73
2022/04/06 07:38:33;;;;;;;1.65;1.52;;;2.30;99.90;;;;;;4972747;28;20097;-75
2022/04/06 07:40:59;;;;;;;1.83;1.65;;;2.30;99.90;;;;;;4972873;28;20027;-75
2022/04/06 07:43:25;;;;;;;3.50;1.73;;;2.20;99.90;;;;;;4966739;28;20055;-75
2022/04/06 07:45:51;;;;;;;0.88;0.88;;;2.20;99.90;;;;;;4961871;28;20081;-72
2022/04/06 07:48:17;;;;;;;3.25;1.05;;;2.10;99.90;;;;;;4973111;28;20027;-73
2022/04/06 07:50:43;;;;;;;2.40;1.70;;;2.00;99.90;;;;;;4957615;28;20058;-72
2022/04/06 07:53:08;;;;;;;0.98;0.80;;;2.00;99.90;;;;;;4969368;28;20031;-74
2022/04/06 07:55:34;;;;;;;0.77;0.77;;;2.00;99.90;;;;;;4959567;28;20169;-69
2022/04/06 07:58:00;;;;;;;0.75;0.75;;;2.10;99.90;;;;;;4973070;28;20478;-72
2022/04/06 08:00:32;;;;;;;0.82;0.70;;;2.00;99.90;;;;;;4959478;28;20511;-72
2022/04/06 08:02:59;;;;;;;3.38;1.08;;;2.00;99.90;;;;;;4970004;28;20035;-73
2022/04/06 08:05:25;;;;;;;0.90;0.90;;;2.20;99.90;;;;;;4966569;28;20050;-72
2022/04/06 08:07:53;;;;;;;3.63;1.20;;;2.20;99.90;;;;;;4961406;28;20470;-72
2022/04/06 08:10:22;;;;;;;5.80;1.00;;;2.60;99.90;;;;;;4960476;28;20023;-73
2022/04/06 08:12:49;;;;;;;2.17;0.80;;;2.90;99.90;;;;;;4969331;28;20023;-73
2022/04/06 08:15:15;;;;;;;1.90;0.57;;;2.90;99.90;;;;;;4970458;28;20390;-73
2022/04/06 08:17:46;;;;;;;1.52;0.60;;;2.80;99.90;;;;;;4969405;28;20027;-72
2022/04/06 08:20:13;;;;;;;1.60;0.88;;;2.90;99.90;;;;;;4970083;28;20038;-73
2022/04/06 08:22:42;;;;;;;1.45;0.70;;;2.90;99.90;;;;;;4972609;28;20018;-73
2022/04/06 08:25:09;;;;;;;1.30;0.80;;;2.90;99.90;;;;;;4971278;28;20038;-71
2022/04/06 08:27:41;;;;;;;0.98;0.85;;;2.90;99.90;;;;;;4960687;28;20054;-72
2022/04/06 08:30:09;;;;;;;0.95;0.80;;;3.00;99.90;;;;;;4952987;29;20493;-72
2022/04/06 08:32:35;;;;;;;0.60;0.60;;;3.10;99.90;;;;;;4954105;28;20030;-73
2022/04/06 08:35:01;;;;;;;0.80;0.80;;;3.10;99.90;;;;;;4960302;28;20129;-73
2022/04/06 08:37:30;;;;;;;0.80;0.80;;;3.10;99.90;;;;;;4972443;28;20494;-72
2022/04/06 08:39:57;;;;;;;2.47;0.90;;;3.00;99.90;;;;;;4972853;28;20039;-72
2022/04/06 08:42:25;;;;;;;1.05;0.95;;;3.10;99.90;;;;;;4972869;28;20037;-72
2022/04/06 08:44:51;;;;;;;3.30;0.90;;;3.10;99.90;;;;;;4972894;28;20030;-73
2022/04/06 08:47:17;;;;;;;0.77;0.77;;;3.40;99.90;;;;;;4972595;28;20631;-72
2022/04/06 08:49:45;;;;;;;2.25;0.80;;;3.50;99.90;;;;;;4972798;28;20474;-72
2022/04/06 08:52:12;;;;;;;1.45;0.88;;;3.50;99.90;;;;;;4972700;28;20023;-72
2022/04/06 08:54:38;;;;;;;1.17;0.80;;;3.40;99.90;;;;;;4968029;28;20028;-71
2022/04/06 08:57:05;;;;;;;1.23;0.80;;;3.30;99.90;;;;;;4959780;28;20155;-72
2022/04/06 08:59:32;;;;;;;0.70;0.70;;;3.10;99.90;;;;;;4956374;28;20046;-72
2022/04/06 09:01:58;;;;;;;0.60;0.60;;;3.10;99.90;;;;;;4967842;28;20027;-73
2022/04/06 09:04:24;;;;;;;0.85;0.70;;;3.10;99.90;;;;;;4956867;28;20090;-70
2022/04/06 09:06:51;;;;;;;0.82;0.77;;;3.10;99.90;;;;;;4957221;28;20511;-72
2022/04/06 09:09:26;;;;;;;0.75;0.70;;;3.20;99.90;;;;;;4960948;28;20367;-73
2022/04/06 09:11:52;;;;;;;0.80;0.80;;;3.20;99.90;;;;;;4966893;28;20037;-73
2022/04/06 09:14:31;;;;;;;0.90;0.73;;;3.10;99.90;;;;;;4969963;28;20058;-72
2022/04/06 09:17:05;;;;;;;0.70;0.70;;;3.20;99.90;;;;;;4975435;28;20033;-74
2022/04/06 09:19:35;;;;;;;0.75;0.65;;;3.20;99.90;;;;;;4976423;28;20529;-74
2022/04/06 09:22:04;;;;;;;4.15;0.70;;;3.10;99.90;;;;;;4976613;28;20078;-73
2022/04/06 09:24:30;;;;;;;0.68;0.63;;;3.30;99.90;;;;;;4975416;28;20085;-74
2022/04/06 09:27:01;;;;;;;0.75;0.75;;;3.40;99.90;;;;;;4976164;28;20494;-75
2022/04/06 09:29:27;;;;;;;0.60;0.60;;;3.40;99.90;;;;;;4976313;28;20090;-75
2022/04/06 09:31:53;;;;;;;0.70;0.70;;;3.30;99.90;;;;;;4975904;28;20450;-76
2022/04/06 09:34:23;;;;;;;0.70;0.70;;;3.30;99.90;;;;;;4975954;28;20027;-75
2022/04/06 09:36:56;;;;;;;;;;;3.30;99.90;;;;;;4976547;28;20034;-75
2022/04/06 09:39:42;;;;;;;0.70;0.70;;;3.30;99.90;;;;;;4975893;28;20297;-76
2022/04/06 09:42:09;;;;;;;0.80;0.70;;;3.30;99.90;;;;;;4976073;28;20022;-76
2022/04/06 09:47:42;;;;;;;0.65;0.65;;;3.30;99.90;;;;;;4973845;28;20041;-79
2022/04/06 09:50:22;;;;;;;0.70;0.65;;;3.40;99.90;;;;;;4960094;28;20537;-73
2022/04/06 09:52:53;;;;;;;0.60;0.60;;;3.50;99.90;;;;;;4974967;28;20642;-71
2022/04/06 09:55:20;;;;;;;0.80;0.80;;;3.50;99.90;;;;;;4975610;28;20110;-73
2022/04/06 09:57:50;;;;;;;1.00;0.70;;;3.50;99.90;;;;;;4975867;28;20438;-73
2022/04/06 10:00:24;;;;;;;0.60;0.60;;;3.60;99.90;;;;;;4975477;28;20031;-74
2022/04/06 10:03:13;;;;;;;0.90;0.75;;;3.70;99.90;;;;;;4975545;28;20052;-76
2022/04/06 10:05:42;;;;;;;0.80;0.70;;;3.70;99.90;;;;;;4975463;28;20109;-74
2022/04/06 10:08:09;;;;;;;1.55;0.80;;;3.70;99.90;;;;;;4975575;28;20070;-75
2022/04/06 10:10:38;;;;;;;0.70;0.70;;;3.70;99.90;;;;;;4975386;28;20096;-74
2022/04/06 10:13:04;;;;;;;0.65;0.60;;;3.70;99.90;;;;;;4975559;28;20548;-74
2022/04/06 10:15:31;;;;;;;0.70;0.70;;;3.60;99.90;;;;;;4975244;28;20401;-71
2022/04/06 10:17:57;;;;;;;0.60;0.60;;;3.60;99.90;;;;;;4975152;28;20077;-75
2022/04/06 10:20:45;;;;;;;0.70;0.70;;;3.60;99.90;;;;;;4974957;28;20073;-81
2022/04/06 10:23:53;;;;;;;0.70;0.70;;;3.70;99.90;;;;;;4974763;28;20035;-76
2022/04/06 10:26:24;;;;;;;0.60;0.60;;;3.80;99.90;;;;;;4974765;28;20021;-77
2022/04/06 10:28:51;;;;;;;0.60;0.60;;;3.80;99.90;;;;;;4974834;28;20479;-77
2022/04/06 10:31:18;;;;;;;2.08;1.05;;;3.70;99.90;;;;;;4974600;28;20074;-77
2022/04/06 10:33:45;;;;;;;2.75;0.70;;;3.70;99.90;;;;;;4973564;28;20029;-77
2022/04/06 10:36:18;;;;;;;0.80;0.70;;;3.50;99.90;;;;;;4974493;28;20030;-77
2022/04/06 10:39:05;;;;;;;0.70;0.70;;;3.50;99.90;;;;;;4974516;28;20050;-77
2022/04/06 10:41:39;;;;;;;0.70;0.70;;;3.40;99.90;;;;;;4975068;28;20027;-76
2022/04/06 10:44:05;;;;;;;1.08;0.63;;;3.20;99.90;;;;;;4974526;28;20034;-77
2022/04/06 10:46:38;;;;;;;0.65;0.65;;;3.20;99.90;;;;;;4974947;28;20026;-76
2022/04/06 10:49:07;;;;;;;0.70;0.68;;;3.20;99.90;;;;;;4974889;28;20031;-77
2022/04/06 10:51:35;;;;;;;1.17;1.08;;;3.20;99.90;;;;;;4974890;28;20027;-77
2022/04/06 10:54:13;;;;;;;0.60;0.60;;;3.20;99.90;;;;;;4974376;28;20058;-77
2022/04/06 10:56:50;;;;;;;1.67;0.93;;;3.30;99.90;;;;;;4965996;28;20031;-77
2022/04/06 10:59:18;;;;;;;1.65;0.65;;;3.30;99.90;;;;;;4964371;28;20031;-78
2022/04/06 11:01:46;;;;;;;0.80;0.80;;;3.40;99.90;;;;;;4967331;28;20158;-74
2022/04/06 11:04:18;;;;;;;0.60;0.60;;;3.50;99.90;;;;;;4957496;28;20569;-72
2022/04/06 11:06:44;;;;;;;0.70;0.70;;;3.70;99.90;;;;;;4968990;28;20177;-72
2022/04/06 11:12:29;;;;;;;0.60;0.60;;;4.00;99.90;;;;;;4972363;28;20434;-72
2022/04/06 11:15:01;;;;;;;1.10;1.00;;;4.10;99.90;;;;;;4973399;28;20029;-72
2022/04/06 11:17:34;;;;;;;1.15;0.77;;;4.30;99.90;;;;;;4962864;28;20419;-72
2022/04/06 11:20:17;;;;;;;1.60;0.80;;;4.20;99.90;;;;;;4967197;28;20058;-72
2022/04/06 11:22:53;;;;;;;2.72;0.90;;;4.40;99.90;;;;;;4956935;28;20027;-72
2022/04/06 11:25:21;;;;;;;0.60;0.60;;;4.70;99.90;;;;;;4963430;28;20023;-72
2022/04/06 11:27:48;;;;;;;0.60;0.60;;;4.40;99.90;;;;;;4967119;28;20056;-74
2022/04/06 11:30:16;;;;;;;0.50;0.50;;;4.20;99.90;;;;;;4956673;28;20478;-74
2022/04/06 11:32:54;;;;;;;2.58;0.73;;;3.90;99.90;;;;;;4968607;28;20111;-74
2022/04/06 11:35:20;;;;;;;1.50;0.65;;;3.70;99.90;;;;;;4961855;28;20033;-71
2022/04/06 11:37:48;;;;;;;1.75;0.70;;;3.70;99.90;;;;;;4959768;28;20035;-74
2022/04/06 11:40:17;;;;;;;0.63;0.60;;;3.60;99.90;;;;;;4969194;28;20497;-74
2022/04/06 11:42:51;;;;;;;1.58;0.80;;;3.40;99.90;;;;;;4958030;28;20394;-74
2022/04/06 11:45:28;;;;;;;0.80;0.80;;;3.20;99.90;;;;;;4963317;28;20031;-74
2022/04/06 11:48:02;;;;;;;1.63;0.95;;;3.00;99.90;;;;;;4967760;28;20030;-74
2022/04/06 11:50:34;;;;;;;0.68;0.60;;;2.90;99.90;;;;;;4956508;28;20215;-74
2022/04/06 11:53:04;;;;;;;0.70;0.70;;;2.70;99.90;;;;;;4965692;28;20031;-74
2022/04/06 11:55:41;;;;;;;0.52;0.52;;;2.50;99.90;;;;;;4963798;28;20386;-75
2022/04/06 11:58:06;;;;;;;0.80;0.80;;;2.40;99.90;;;;;;4956703;28;20382;-74
2022/04/06 12:00:34;;;;;;;2.40;0.75;;;2.40;99.90;;;;;;4969038;28;20110;-74
2022/04/06 12:03:02;;;;;;;2.38;0.80;;;2.20;99.90;;;;;;4960382;28;20567;-74
2022/04/06 12:05:28;;;;;;;0.70;0.70;;;2.20;99.90;;;;;;4961781;28;20391;-74
2022/04/06 12:08:12;;;;;;;0.75;0.75;;;2.10;99.90;;;;;;4967074;28;20031;-74
2022/04/06 12:10:51;;;;;;;1.17;0.82;;;2.00;99.90;;;;;;4968033;28;20070;-74
2022/04/06 12:13:18;;;;;;;0.90;0.90;;;2.00;99.90;;;;;;4963418;28;20583;-74
2022/04/06 12:15:46;;;;;;;0.90;0.80;;;2.00;99.90;;;;;;4960869;28;20019;-74
2022/04/06 12:18:12;;;;;;;0.70;0.70;;;2.10;99.90;;;;;;4971887;28;20102;-74
2022/04/06 12:20:38;;;;;;;4.63;1.10;;;2.00;99.90;;;;;;4952956;28;20038;-74
2022/04/06 12:23:05;;;;;;;1.50;0.90;;;2.00;99.90;;;;;;4961908;28;20039;-73
2022/04/06 12:25:36;;;;;;;1.08;0.90;;;2.10;99.90;;;;;;4972319;28;20019;-74
2022/04/06 12:28:21;;;;;;;1.13;0.88;;;2.20;99.90;;;;;;4957566;28;20453;-74
2022/04/06 12:30:53;;;;;;;1.27;1.17;;;2.20;99.90;;;;;;4953375;28;20388;-74
2022/04/06 12:33:54;;;;;;;1.13;0.90;;;2.00;99.90;;;;;;4961611;28;20027;-74
2022/04/06 12:36:21;;;;;;;0.80;0.80;;;1.90;99.90;;;;;;4877895;29;20025;-73
2022/04/06 12:38:58;;;;;;;1.27;1.10;;;1.80;99.90;;;;;;4955821;28;20427;-74
2022/04/06 12:41:25;;;;;;;0.90;0.80;;;1.80;99.90;;;;;;4966324;28;20473;-73
2022/04/06 12:43:51;;;;;;;1.17;1.00;;;1.90;99.90;;;;;;4972491;28;20043;-73
2022/04/06 12:46:42;;;;;;;1.05;0.98;;;1.90;99.90;;;;;;4955951;28;20034;-73
2022/04/06 12:49:24;;;;;;;1.85;1.15;;;1.70;99.90;;;;;;4964099;28;20160;-74
2022/04/06 12:52:03;;;;;;;1.30;1.00;;;1.70;99.90;;;;;;4966162;28;20562;-73
2022/04/06 12:54:31;;;;;;;1.40;1.05;;;1.70;99.90;;;;;;4956095;28;20035;-68
2022/04/06 12:57:03;;;;;;;3.78;1.20;;;1.70;99.90;;;;;;4964999;28;20039;-71
2022/04/06 12:59:36;;;;;;;1.60;1.08;;;1.70;99.90;;;;;;4960034;28;20039;-72
2022/04/06 13:02:04;;;;;;;1.05;0.95;;;1.70;99.90;;;;;;4958141;28;20076;-72
2022/04/06 13:04:37;;;;;;;1.67;0.85;;;1.70;99.90;;;;;;4956010;28;20035;-72
2022/04/06 13:07:03;;;;;;;1.38;1.27;;;1.80;99.90;;;;;;4957613;28;20509;-71
2022/04/06 13:09:29;;;;;;;1.10;1.00;;;1.80;99.90;;;;;;4971604;28;20029;-71
2022/04/06 13:11:55;;;;;;;1.20;1.10;;;1.80;99.90;;;;;;4970726;28;20611;-71
2022/04/06 13:14:20;;;;;;;1.55;1.13;;;1.80;99.90;;;;;;4961096;28;20110;-72
2022/04/06 13:16:46;;;;;;;1.58;1.10;;;1.80;99.90;;;;;;4967021;28;20055;-72
2022/04/06 13:19:12;;;;;;;1.00;1.00;;;1.70;99.90;;;;;;4952495;28;20035;-72
2022/04/06 13:21:38;;;;;;;0.70;0.70;;;1.70;99.90;;;;;;4964415;28;20031;-72
2022/04/06 13:24:06;;;;;;;2.47;1.20;;;1.80;99.90;;;;;;4956190;28;20133;-72
2022/04/06 13:26:32;;;;;;;1.05;0.98;;;1.80;99.90;;;;;;4951580;28;20039;-72
2022/04/06 13:28:58;;;;;;;1.42;0.90;;;1.90;99.90;;;;;;4953127;29;20034;-72
2022/04/06 13:31:23;;;;;;;0.93;0.93;;;2.00;99.90;;;;;;4953028;28;20032;-71
2022/04/06 13:33:50;;;;;;;1.05;1.05;;;2.00;99.90;;;;;;4952969;28;20087;-71
2022/04/06 13:36:15;;;;;;;0.85;0.85;;;2.10;99.90;;;;;;4952397;28;20078;-72
2022/04/06 13:38:41;;;;;;;0.95;0.93;;;2.10;99.90;;;;;;4951778;29;20059;-72
2022/04/06 13:41:08;;;;;;;1.02;0.98;;;2.10;99.90;;;;;;4952719;29;20049;-72
2022/04/06 13:43:33;;;;;;;4.07;1.33;;;2.10;99.90;;;;;;4953122;28;20055;-74
2022/04/06 13:45:59;;;;;;;0.93;0.90;;;2.40;99.90;;;;;;4971126;28;20027;-75
2022/04/06 13:48:25;;;;;;;1.52;1.00;;;2.30;99.90;;;;;;4961064;28;20490;-77
2022/04/06 13:50:51;;;;;;;0.82;0.82;;;2.10;99.90;;;;;;4974653;28;20027;-78
2022/04/06 13:53:17;;;;;;;1.02;0.98;;;2.00;99.90;;;;;;4968444;28;20064;-73
2022/04/06 13:55:42;;;;;;;1.83;1.00;;;2.00;99.90;;;;;;4966839;28;20442;-73
2022/04/06 13:58:10;;;;;;;2.40;1.35;;;1.90;99.90;;;;;;4965288;28;20023;-74
2022/04/06 14:00:37;;;;;;;1.67;1.40;;;1.90;99.90;;;;;;4975275;28;20050;-74
2022/04/06 14:03:03;;;;;;;1.50;1.15;;;2.00;99.90;;;;;;4973390;28;20423;-74
2022/04/06 14:05:31;;;;;;;2.08;1.20;;;2.10;99.90;;;;;;4974965;28;20390;-73
2022/04/06 14:07:58;;;;;;;1.50;1.13;;;2.10;99.90;;;;;;4969896;28;20037;-73
2022/04/06 14:10:23;;;;;;;1.30;1.13;;;2.10;99.90;;;;;;4959310;28;20027;-73
2022/04/06 14:12:49;;;;;;;1.10;1.00;;;2.10;99.90;;;;;;4970122;28;20177;-73
2022/04/06 14:15:16;;;;;;;1.60;1.23;;;2.10;99.90;;;;;;4968842;28;20023;-73
2022/04/06 14:17:42;;;;;;;1.92;1.35;;;2.10;99.90;;;;;;4967788;28;20027;-74